sensor_id;sensor_type;location;lat;lon;timestamp;P1;durP1;ratioP1;P2;durP2;ratioP2
71288;SDS011;59068;52.502;9.860;2023-04-25T00:00:13;8.97;;;4.40;;
71288;SDS011;59068;52.502;9.860;2023-04-25T00:02:39;6.47;;;4.10;;
71288;SDS011;59068;52.502;9.860;2023-04-25T00:05:04;7.53;;;4.10;;
71288;SDS011;59068;52.502;9.860;2023-04-25T00:07:30;10.27;;;4.40;;
71288;SDS011;59068;52.502;9.860;2023-04-25T00:09:57;9.10;;;4.90;;
71288;SDS011;59068;52.502;9.860;2023-04-25T00:12:22;8.97;;;4.63;;
71288;SDS011;59068;52.502;9.860;2023-04-25T00:14:48;9.80;;;4.23;;
71288;SDS011;59068;52.502;9.860;2023-04-25T00:17:14;12.77;;;4.83;;
71288;SDS011;59068;52.502;9.860;2023-04-25T00:19:41;7.10;;;4.43;;
71288;SDS011;59068;52.502;9.860;2023-04-25T00:22:07;7.77;;;4.70;;
71288;SDS011;59068;52.502;9.860;2023-04-25T00:24:32;10.20;;;4.87;;
71288;SDS011;59068;52.502;9.860;2023-04-25T00:26:58;6.87;;;4.70;;
71288;SDS011;59068;52.502;9.860;2023-04-25T00:29:23;6.63;;;4.70;;
71288;SDS011;59068;52.502;9.860;2023-04-25T00:31:48;6.73;;;3.90;;
71288;SDS011;59068;52.502;9.860;2023-04-25T00:34:14;8.93;;;4.63;;
71288;SDS011;59068;52.502;9.860;2023-04-25T00:36:39;9.43;;;4.23;;
71288;SDS011;59068;52.502;9.860;2023-04-25T00:39:04;10.00;;;4.80;;
71288;SDS011;59068;52.502;9.860;2023-04-25T00:41:31;12.77;;;5.37;;
71288;SDS011;59068;52.502;9.860;2023-04-25T00:43:57;8.23;;;4.07;;
71288;SDS011;59068;52.502;9.860;2023-04-25T00:46:24;8.30;;;4.57;;
71288;SDS011;59068;52.502;9.860;2023-04-25T00:48:49;8.37;;;4.30;;
71288;SDS011;59068;52.502;9.860;2023-04-25T00:51:16;10.33;;;4.57;;
71288;SDS011;59068;52.502;9.860;2023-04-25T00:53:44;5.97;;;4.47;;
71288;SDS011;59068;52.502;9.860;2023-04-25T00:56:09;11.03;;;5.07;;
71288;SDS011;59068;52.502;9.860;2023-04-25T00:58:35;11.10;;;4.73;;
71288;SDS011;59068;52.502;9.860;2023-04-25T01:01:01;9.23;;;4.37;;
71288;SDS011;59068;52.502;9.860;2023-04-25T01:03:27;9.47;;;5.17;;
71288;SDS011;59068;52.502;9.860;2023-04-25T01:05:53;12.90;;;5.10;;
71288;SDS011;59068;52.502;9.860;2023-04-25T01:08:19;9.33;;;5.40;;
71288;SDS011;59068;52.502;9.860;2023-04-25T01:10:46;8.23;;;4.33;;
71288;SDS011;59068;52.502;9.860;2023-04-25T01:13:12;9.37;;;5.07;;
71288;SDS011;59068;52.502;9.860;2023-04-25T01:15:37;10.43;;;5.33;;
71288;SDS011;59068;52.502;9.860;2023-04-25T01:18:03;10.87;;;4.73;;
71288;SDS011;59068;52.502;9.860;2023-04-25T01:20:30;9.30;;;5.00;;
71288;SDS011;59068;52.502;9.860;2023-04-25T01:22:57;9.37;;;4.70;;
71288;SDS011;59068;52.502;9.860;2023-04-25T01:25:22;7.70;;;4.63;;
71288;SDS011;59068;52.502;9.860;2023-04-25T01:27:48;9.37;;;4.93;;
71288;SDS011;59068;52.502;9.860;2023-04-25T01:30:14;8.13;;;4.97;;
71288;SDS011;59068;52.502;9.860;2023-04-25T01:32:39;13.03;;;5.53;;
71288;SDS011;59068;52.502;9.860;2023-04-25T01:35:06;11.23;;;6.30;;
71288;SDS011;59068;52.502;9.860;2023-04-25T01:37:34;10.67;;;5.43;;
71288;SDS011;59068;52.502;9.860;2023-04-25T01:40:10;10.40;;;5.87;;
71288;SDS011;59068;52.502;9.860;2023-04-25T01:42:39;9.17;;;5.47;;
71288;SDS011;59068;52.502;9.860;2023-04-25T01:45:06;9.23;;;4.97;;
71288;SDS011;59068;52.502;9.860;2023-04-25T01:47:32;9.80;;;5.37;;
71288;SDS011;59068;52.502;9.860;2023-04-25T01:49:57;10.37;;;5.03;;
71288;SDS011;59068;52.502;9.860;2023-04-25T01:52:23;11.60;;;5.67;;
71288;SDS011;59068;52.502;9.860;2023-04-25T01:54:48;7.23;;;4.40;;
71288;SDS011;59068;52.502;9.860;2023-04-25T01:57:15;11.10;;;5.23;;
71288;SDS011;59068;52.502;9.860;2023-04-25T01:59:40;10.70;;;5.57;;
71288;SDS011;59068;52.502;9.860;2023-04-25T02:02:06;9.87;;;5.93;;
71288;SDS011;59068;52.502;9.860;2023-04-25T02:04:31;11.53;;;5.97;;
71288;SDS011;59068;52.502;9.860;2023-04-25T02:06:57;15.63;;;6.37;;
71288;SDS011;59068;52.502;9.860;2023-04-25T02:09:23;8.40;;;6.13;;
71288;SDS011;59068;52.502;9.860;2023-04-25T02:11:48;10.40;;;5.77;;
71288;SDS011;59068;52.502;9.860;2023-04-25T02:14:14;9.60;;;5.87;;
71288;SDS011;59068;52.502;9.860;2023-04-25T02:16:39;11.73;;;6.53;;
71288;SDS011;59068;52.502;9.860;2023-04-25T02:19:05;12.67;;;6.37;;
71288;SDS011;59068;52.502;9.860;2023-04-25T02:21:31;11.20;;;6.40;;
71288;SDS011;59068;52.502;9.860;2023-04-25T02:23:56;14.30;;;5.57;;
71288;SDS011;59068;52.502;9.860;2023-04-25T02:26:22;9.00;;;5.47;;
71288;SDS011;59068;52.502;9.860;2023-04-25T02:28:48;13.43;;;5.13;;
71288;SDS011;59068;52.502;9.860;2023-04-25T02:31:14;8.37;;;5.07;;
71288;SDS011;59068;52.502;9.860;2023-04-25T02:33:39;13.23;;;4.80;;
71288;SDS011;59068;52.502;9.860;2023-04-25T02:36:05;9.30;;;5.20;;
71288;SDS011;59068;52.502;9.860;2023-04-25T02:38:30;13.57;;;5.10;;
71288;SDS011;59068;52.502;9.860;2023-04-25T02:40:56;10.03;;;4.63;;
71288;SDS011;59068;52.502;9.860;2023-04-25T02:43:21;13.20;;;4.90;;
71288;SDS011;59068;52.502;9.860;2023-04-25T02:45:47;8.60;;;4.00;;
71288;SDS011;59068;52.502;9.860;2023-04-25T02:48:12;14.37;;;5.33;;
71288;SDS011;59068;52.502;9.860;2023-04-25T02:50:37;12.50;;;5.37;;
71288;SDS011;59068;52.502;9.860;2023-04-25T02:53:03;11.47;;;5.43;;
71288;SDS011;59068;52.502;9.860;2023-04-25T02:55:28;13.83;;;5.03;;
71288;SDS011;59068;52.502;9.860;2023-04-25T02:57:53;12.80;;;4.93;;
71288;SDS011;59068;52.502;9.860;2023-04-25T03:00:20;12.73;;;5.07;;
71288;SDS011;59068;52.502;9.860;2023-04-25T03:02:47;11.20;;;3.90;;
71288;SDS011;59068;52.502;9.860;2023-04-25T03:05:12;12.50;;;4.50;;
71288;SDS011;59068;52.502;9.860;2023-04-25T03:07:37;10.83;;;4.40;;
71288;SDS011;59068;52.502;9.860;2023-04-25T03:10:04;12.47;;;4.53;;
71288;SDS011;59068;52.502;9.860;2023-04-25T03:12:31;8.00;;;4.70;;
71288;SDS011;59068;52.502;9.860;2023-04-25T03:14:56;13.60;;;4.30;;
71288;SDS011;59068;52.502;9.860;2023-04-25T03:17:22;10.73;;;3.93;;
71288;SDS011;59068;52.502;9.860;2023-04-25T03:19:47;14.03;;;4.97;;
71288;SDS011;59068;52.502;9.860;2023-04-25T03:22:14;13.57;;;3.93;;
71288;SDS011;59068;52.502;9.860;2023-04-25T03:24:39;9.90;;;3.80;;
71288;SDS011;59068;52.502;9.860;2023-04-25T03:27:05;14.73;;;4.37;;
71288;SDS011;59068;52.502;9.860;2023-04-25T03:29:30;9.60;;;3.83;;
71288;SDS011;59068;52.502;9.860;2023-04-25T03:31:55;12.60;;;3.70;;
71288;SDS011;59068;52.502;9.860;2023-04-25T03:34:21;14.27;;;4.17;;
71288;SDS011;59068;52.502;9.860;2023-04-25T03:36:46;15.33;;;4.77;;
71288;SDS011;59068;52.502;9.860;2023-04-25T03:39:12;12.97;;;4.73;;
71288;SDS011;59068;52.502;9.860;2023-04-25T03:41:37;9.50;;;4.03;;
71288;SDS011;59068;52.502;9.860;2023-04-25T03:44:02;11.00;;;4.17;;
71288;SDS011;59068;52.502;9.860;2023-04-25T03:46:28;6.83;;;4.03;;
71288;SDS011;59068;52.502;9.860;2023-04-25T03:48:53;14.23;;;4.70;;
71288;SDS011;59068;52.502;9.860;2023-04-25T03:51:19;14.87;;;4.53;;
71288;SDS011;59068;52.502;9.860;2023-04-25T03:53:44;16.30;;;4.43;;
71288;SDS011;59068;52.502;9.860;2023-04-25T03:56:09;13.37;;;4.00;;
71288;SDS011;59068;52.502;9.860;2023-04-25T03:58:35;12.57;;;4.07;;
71288;SDS011;59068;52.502;9.860;2023-04-25T04:01:00;10.87;;;3.47;;
71288;SDS011;59068;52.502;9.860;2023-04-25T04:03:28;12.17;;;4.17;;
71288;SDS011;59068;52.502;9.860;2023-04-25T04:05:53;12.80;;;4.20;;
71288;SDS011;59068;52.502;9.860;2023-04-25T04:08:18;12.03;;;4.13;;
71288;SDS011;59068;52.502;9.860;2023-04-25T04:10:44;10.53;;;3.97;;
71288;SDS011;59068;52.502;9.860;2023-04-25T04:13:10;11.87;;;4.43;;
71288;SDS011;59068;52.502;9.860;2023-04-25T04:15:35;16.47;;;4.83;;
71288;SDS011;59068;52.502;9.860;2023-04-25T04:18:01;15.67;;;4.23;;
71288;SDS011;59068;52.502;9.860;2023-04-25T04:20:29;9.50;;;4.47;;
71288;SDS011;59068;52.502;9.860;2023-04-25T04:22:55;12.27;;;4.17;;
71288;SDS011;59068;52.502;9.860;2023-04-25T04:25:21;12.60;;;4.27;;
71288;SDS011;59068;52.502;9.860;2023-04-25T04:27:46;14.93;;;3.83;;
71288;SDS011;59068;52.502;9.860;2023-04-25T04:30:12;14.77;;;4.17;;
71288;SDS011;59068;52.502;9.860;2023-04-25T04:32:37;11.83;;;4.63;;
71288;SDS011;59068;52.502;9.860;2023-04-25T04:35:03;12.17;;;3.67;;
71288;SDS011;59068;52.502;9.860;2023-04-25T04:37:29;9.90;;;3.90;;
71288;SDS011;59068;52.502;9.860;2023-04-25T04:39:55;11.50;;;3.87;;
71288;SDS011;59068;52.502;9.860;2023-04-25T04:42:21;18.83;;;5.07;;
71288;SDS011;59068;52.502;9.860;2023-04-25T04:44:46;14.10;;;4.00;;
71288;SDS011;59068;52.502;9.860;2023-04-25T04:47:12;13.83;;;4.03;;
71288;SDS011;59068;52.502;9.860;2023-04-25T04:49:39;11.23;;;3.83;;
71288;SDS011;59068;52.502;9.860;2023-04-25T04:52:04;13.47;;;3.67;;
71288;SDS011;59068;52.502;9.860;2023-04-25T04:54:30;13.53;;;4.13;;
71288;SDS011;59068;52.502;9.860;2023-04-25T04:56:55;14.90;;;4.30;;
71288;SDS011;59068;52.502;9.860;2023-04-25T04:59:21;13.63;;;3.93;;
71288;SDS011;59068;52.502;9.860;2023-04-25T05:01:46;15.77;;;4.70;;
71288;SDS011;59068;52.502;9.860;2023-04-25T05:04:11;15.57;;;4.70;;
71288;SDS011;59068;52.502;9.860;2023-04-25T05:06:37;18.43;;;4.63;;
71288;SDS011;59068;52.502;9.860;2023-04-25T05:09:02;16.03;;;4.03;;
71288;SDS011;59068;52.502;9.860;2023-04-25T05:11:28;15.60;;;4.20;;
71288;SDS011;59068;52.502;9.860;2023-04-25T05:13:54;15.93;;;4.43;;
71288;SDS011;59068;52.502;9.860;2023-04-25T05:16:19;14.10;;;4.13;;
71288;SDS011;59068;52.502;9.860;2023-04-25T05:18:45;15.57;;;3.67;;
71288;SDS011;59068;52.502;9.860;2023-04-25T05:21:11;13.83;;;4.23;;
71288;SDS011;59068;52.502;9.860;2023-04-25T05:23:36;12.73;;;4.03;;
71288;SDS011;59068;52.502;9.860;2023-04-25T05:26:02;15.20;;;3.97;;
71288;SDS011;59068;52.502;9.860;2023-04-25T05:28:27;15.13;;;4.43;;
71288;SDS011;59068;52.502;9.860;2023-04-25T05:30:53;14.60;;;3.73;;
71288;SDS011;59068;52.502;9.860;2023-04-25T05:33:18;10.87;;;4.33;;
71288;SDS011;59068;52.502;9.860;2023-04-25T05:35:43;17.20;;;5.43;;
71288;SDS011;59068;52.502;9.860;2023-04-25T05:38:09;13.50;;;4.37;;
71288;SDS011;59068;52.502;9.860;2023-04-25T05:40:34;17.43;;;3.50;;
71288;SDS011;59068;52.502;9.860;2023-04-25T05:43:00;17.37;;;4.10;;
71288;SDS011;59068;52.502;9.860;2023-04-25T05:45:25;14.03;;;4.57;;
71288;SDS011;59068;52.502;9.860;2023-04-25T05:47:51;13.43;;;3.60;;
71288;SDS011;59068;52.502;9.860;2023-04-25T05:50:16;13.03;;;3.03;;
71288;SDS011;59068;52.502;9.860;2023-04-25T05:52:41;12.80;;;3.97;;
71288;SDS011;59068;52.502;9.860;2023-04-25T05:55:07;14.33;;;3.80;;
71288;SDS011;59068;52.502;9.860;2023-04-25T05:57:33;13.20;;;3.50;;
71288;SDS011;59068;52.502;9.860;2023-04-25T05:59:58;11.40;;;2.97;;
71288;SDS011;59068;52.502;9.860;2023-04-25T06:02:24;9.33;;;3.13;;
71288;SDS011;59068;52.502;9.860;2023-04-25T06:04:49;9.10;;;3.47;;
71288;SDS011;59068;52.502;9.860;2023-04-25T06:07:15;20.00;;;3.97;;
71288;SDS011;59068;52.502;9.860;2023-04-25T06:09:41;15.83;;;3.27;;
71288;SDS011;59068;52.502;9.860;2023-04-25T06:12:06;10.83;;;3.70;;
71288;SDS011;59068;52.502;9.860;2023-04-25T06:14:32;11.07;;;3.70;;
71288;SDS011;59068;52.502;9.860;2023-04-25T06:16:59;13.90;;;3.30;;
71288;SDS011;59068;52.502;9.860;2023-04-25T06:19:24;11.73;;;3.40;;
71288;SDS011;59068;52.502;9.860;2023-04-25T06:21:50;9.70;;;2.90;;
71288;SDS011;59068;52.502;9.860;2023-04-25T06:24:15;11.90;;;3.30;;
71288;SDS011;59068;52.502;9.860;2023-04-25T06:26:40;10.70;;;2.80;;
71288;SDS011;59068;52.502;9.860;2023-04-25T06:29:06;11.97;;;2.93;;
71288;SDS011;59068;52.502;9.860;2023-04-25T06:31:31;7.43;;;3.03;;
71288;SDS011;59068;52.502;9.860;2023-04-25T06:34:00;12.17;;;3.00;;
71288;SDS011;59068;52.502;9.860;2023-04-25T06:36:25;7.80;;;3.23;;
71288;SDS011;59068;52.502;9.860;2023-04-25T06:38:52;11.80;;;2.87;;
71288;SDS011;59068;52.502;9.860;2023-04-25T06:41:17;8.63;;;2.57;;
71288;SDS011;59068;52.502;9.860;2023-04-25T06:43:43;13.37;;;3.37;;
71288;SDS011;59068;52.502;9.860;2023-04-25T06:46:09;7.97;;;2.70;;
71288;SDS011;59068;52.502;9.860;2023-04-25T06:48:34;5.50;;;2.10;;
71288;SDS011;59068;52.502;9.860;2023-04-25T06:51:00;10.00;;;3.13;;
71288;SDS011;59068;52.502;9.860;2023-04-25T06:53:25;9.17;;;2.50;;
71288;SDS011;59068;52.502;9.860;2023-04-25T06:55:50;11.43;;;2.97;;
71288;SDS011;59068;52.502;9.860;2023-04-25T06:58:16;10.63;;;2.37;;
71288;SDS011;59068;52.502;9.860;2023-04-25T07:00:41;8.90;;;2.37;;
71288;SDS011;59068;52.502;9.860;2023-04-25T07:03:07;9.50;;;2.50;;
71288;SDS011;59068;52.502;9.860;2023-04-25T07:05:32;8.70;;;2.80;;
71288;SDS011;59068;52.502;9.860;2023-04-25T07:07:57;8.00;;;2.83;;
71288;SDS011;59068;52.502;9.860;2023-04-25T07:10:23;9.30;;;2.97;;
71288;SDS011;59068;52.502;9.860;2023-04-25T07:12:48;8.57;;;2.23;;
71288;SDS011;59068;52.502;9.860;2023-04-25T07:15:13;6.13;;;2.37;;
71288;SDS011;59068;52.502;9.860;2023-04-25T07:17:39;8.27;;;2.43;;
71288;SDS011;59068;52.502;9.860;2023-04-25T07:20:04;10.37;;;2.97;;
71288;SDS011;59068;52.502;9.860;2023-04-25T07:22:31;7.13;;;2.40;;
71288;SDS011;59068;52.502;9.860;2023-04-25T07:24:57;10.13;;;2.90;;
71288;SDS011;59068;52.502;9.860;2023-04-25T07:27:22;8.60;;;2.43;;
71288;SDS011;59068;52.502;9.860;2023-04-25T07:29:47;7.47;;;2.60;;
71288;SDS011;59068;52.502;9.860;2023-04-25T07:32:13;6.20;;;2.23;;
71288;SDS011;59068;52.502;9.860;2023-04-25T07:34:39;4.87;;;1.43;;
71288;SDS011;59068;52.502;9.860;2023-04-25T07:37:04;7.37;;;2.00;;
71288;SDS011;59068;52.502;9.860;2023-04-25T07:39:30;11.00;;;2.57;;
71288;SDS011;59068;52.502;9.860;2023-04-25T07:41:55;5.57;;;2.03;;
71288;SDS011;59068;52.502;9.860;2023-04-25T07:44:23;11.47;;;2.60;;
71288;SDS011;59068;52.502;9.860;2023-04-25T07:46:48;9.53;;;2.33;;
71288;SDS011;59068;52.502;9.860;2023-04-25T07:49:14;4.57;;;1.80;;
71288;SDS011;59068;52.502;9.860;2023-04-25T07:51:40;5.37;;;1.77;;
71288;SDS011;59068;52.502;9.860;2023-04-25T07:54:06;6.10;;;1.87;;
71288;SDS011;59068;52.502;9.860;2023-04-25T07:56:31;9.27;;;2.17;;
71288;SDS011;59068;52.502;9.860;2023-04-25T07:58:57;8.30;;;1.93;;
71288;SDS011;59068;52.502;9.860;2023-04-25T08:01:22;4.87;;;1.80;;
71288;SDS011;59068;52.502;9.860;2023-04-25T08:03:48;7.17;;;2.03;;
71288;SDS011;59068;52.502;9.860;2023-04-25T08:06:13;4.33;;;1.17;;
71288;SDS011;59068;52.502;9.860;2023-04-25T08:08:38;8.07;;;2.47;;
71288;SDS011;59068;52.502;9.860;2023-04-25T08:11:04;6.53;;;2.27;;
71288;SDS011;59068;52.502;9.860;2023-04-25T08:13:29;5.57;;;1.63;;
71288;SDS011;59068;52.502;9.860;2023-04-25T08:15:54;5.40;;;2.00;;
71288;SDS011;59068;52.502;9.860;2023-04-25T08:18:20;5.97;;;1.53;;
71288;SDS011;59068;52.502;9.860;2023-04-25T08:20:45;4.07;;;1.63;;
71288;SDS011;59068;52.502;9.860;2023-04-25T08:23:10;4.10;;;1.40;;
71288;SDS011;59068;52.502;9.860;2023-04-25T08:25:36;4.70;;;1.60;;
71288;SDS011;59068;52.502;9.860;2023-04-25T08:28:01;5.50;;;1.60;;
71288;SDS011;59068;52.502;9.860;2023-04-25T08:30:28;5.80;;;1.33;;
71288;SDS011;59068;52.502;9.860;2023-04-25T08:32:53;5.07;;;1.70;;
71288;SDS011;59068;52.502;9.860;2023-04-25T08:35:19;5.77;;;1.83;;
71288;SDS011;59068;52.502;9.860;2023-04-25T08:37:45;4.80;;;1.20;;
71288;SDS011;59068;52.502;9.860;2023-04-25T08:40:11;6.80;;;2.00;;
71288;SDS011;59068;52.502;9.860;2023-04-25T08:42:39;5.17;;;1.47;;
71288;SDS011;59068;52.502;9.860;2023-04-25T08:45:06;5.77;;;1.77;;
71288;SDS011;59068;52.502;9.860;2023-04-25T08:47:33;4.87;;;1.70;;
71288;SDS011;59068;52.502;9.860;2023-04-25T08:49:59;6.17;;;1.80;;
71288;SDS011;59068;52.502;9.860;2023-04-25T08:52:25;5.70;;;1.53;;
71288;SDS011;59068;52.502;9.860;2023-04-25T08:54:53;5.40;;;1.80;;
71288;SDS011;59068;52.502;9.860;2023-04-25T08:57:19;9.57;;;1.77;;
71288;SDS011;59068;52.502;9.860;2023-04-25T08:59:45;9.87;;;2.10;;
71288;SDS011;59068;52.502;9.860;2023-04-25T09:02:12;7.77;;;2.00;;
71288;SDS011;59068;52.502;9.860;2023-04-25T09:04:42;4.73;;;1.67;;
71288;SDS011;59068;52.502;9.860;2023-04-25T09:07:08;5.90;;;1.77;;
71288;SDS011;59068;52.502;9.860;2023-04-25T09:09:33;4.37;;;1.17;;
71288;SDS011;59068;52.502;9.860;2023-04-25T09:11:59;6.97;;;1.73;;
71288;SDS011;59068;52.502;9.860;2023-04-25T09:14:26;5.90;;;1.50;;
71288;SDS011;59068;52.502;9.860;2023-04-25T09:19:42;4.30;;;1.53;;
71288;SDS011;59068;52.502;9.860;2023-04-25T09:22:09;2.33;;;1.50;;
71288;SDS011;59068;52.502;9.860;2023-04-25T09:24:38;5.00;;;1.60;;
71288;SDS011;59068;52.502;9.860;2023-04-25T09:27:09;6.63;;;1.70;;
71288;SDS011;59068;52.502;9.860;2023-04-25T09:29:36;8.47;;;2.03;;
71288;SDS011;59068;52.502;9.860;2023-04-25T09:32:22;5.87;;;1.57;;
71288;SDS011;59068;52.502;9.860;2023-04-25T09:34:49;5.97;;;1.50;;
71288;SDS011;59068;52.502;9.860;2023-04-25T09:37:25;3.77;;;1.50;;
71288;SDS011;59068;52.502;9.860;2023-04-25T09:39:53;4.13;;;1.60;;
71288;SDS011;59068;52.502;9.860;2023-04-25T09:42:24;5.87;;;1.40;;
71288;SDS011;59068;52.502;9.860;2023-04-25T09:44:52;4.70;;;1.27;;
71288;SDS011;59068;52.502;9.860;2023-04-25T09:47:21;4.63;;;1.00;;
71288;SDS011;59068;52.502;9.860;2023-04-25T09:49:48;6.07;;;1.17;;
71288;SDS011;59068;52.502;9.860;2023-04-25T09:52:18;5.20;;;1.40;;
71288;SDS011;59068;52.502;9.860;2023-04-25T09:54:48;3.57;;;0.97;;
71288;SDS011;59068;52.502;9.860;2023-04-25T09:57:21;4.53;;;1.17;;
71288;SDS011;59068;52.502;9.860;2023-04-25T09:59:49;2.43;;;1.00;;
71288;SDS011;59068;52.502;9.860;2023-04-25T10:02:16;3.57;;;0.90;;
71288;SDS011;59068;52.502;9.860;2023-04-25T10:04:44;2.93;;;1.20;;
71288;SDS011;59068;52.502;9.860;2023-04-25T10:07:11;3.50;;;1.20;;
71288;SDS011;59068;52.502;9.860;2023-04-25T10:09:37;2.23;;;1.00;;
71288;SDS011;59068;52.502;9.860;2023-04-25T10:12:04;4.13;;;1.40;;
71288;SDS011;59068;52.502;9.860;2023-04-25T10:14:31;5.07;;;1.70;;
71288;SDS011;59068;52.502;9.860;2023-04-25T10:16:57;5.17;;;1.20;;
71288;SDS011;59068;52.502;9.860;2023-04-25T10:19:23;2.90;;;0.77;;
71288;SDS011;59068;52.502;9.860;2023-04-25T10:22:35;5.77;;;1.40;;
71288;SDS011;59068;52.502;9.860;2023-04-25T10:24:39;1.63;;;1.00;;
71288;SDS011;59068;52.502;9.860;2023-04-25T10:27:05;3.97;;;1.17;;
71288;SDS011;59068;52.502;9.860;2023-04-25T10:29:31;4.23;;;1.23;;
71288;SDS011;59068;52.502;9.860;2023-04-25T10:31:56;4.27;;;1.43;;
71288;SDS011;59068;52.502;9.860;2023-04-25T10:34:37;2.97;;;1.03;;
71288;SDS011;59068;52.502;9.860;2023-04-25T10:37:10;4.73;;;1.40;;
71288;SDS011;59068;52.502;9.860;2023-04-25T10:39:36;2.67;;;1.63;;
71288;SDS011;59068;52.502;9.860;2023-04-25T10:42:03;2.90;;;0.73;;
71288;SDS011;59068;52.502;9.860;2023-04-25T10:44:29;3.23;;;0.70;;
71288;SDS011;59068;52.502;9.860;2023-04-25T10:46:56;2.77;;;1.17;;
71288;SDS011;59068;52.502;9.860;2023-04-25T10:49:30;1.70;;;0.63;;
71288;SDS011;59068;52.502;9.860;2023-04-25T10:54:55;2.97;;;1.07;;
71288;SDS011;59068;52.502;9.860;2023-04-25T10:57:40;3.17;;;1.13;;
71288;SDS011;59068;52.502;9.860;2023-04-25T11:00:14;3.57;;;1.20;;
71288;SDS011;59068;52.502;9.860;2023-04-25T11:02:41;4.00;;;1.63;;
71288;SDS011;59068;52.502;9.860;2023-04-25T11:05:33;4.40;;;1.50;;
71288;SDS011;59068;52.502;9.860;2023-04-25T11:08:00;3.60;;;1.30;;
71288;SDS011;59068;52.502;9.860;2023-04-25T11:10:26;5.67;;;1.77;;
71288;SDS011;59068;52.502;9.860;2023-04-25T11:12:53;4.30;;;1.10;;
71288;SDS011;59068;52.502;9.860;2023-04-25T11:15:18;2.57;;;1.37;;
71288;SDS011;59068;52.502;9.860;2023-04-25T11:17:44;3.20;;;1.30;;
71288;SDS011;59068;52.502;9.860;2023-04-25T11:20:11;2.07;;;0.90;;
71288;SDS011;59068;52.502;9.860;2023-04-25T11:22:38;3.37;;;1.00;;
71288;SDS011;59068;52.502;9.860;2023-04-25T11:25:07;3.20;;;1.00;;
71288;SDS011;59068;52.502;9.860;2023-04-25T11:27:37;2.47;;;0.97;;
71288;SDS011;59068;52.502;9.860;2023-04-25T11:30:23;1.67;;;0.80;;
71288;SDS011;59068;52.502;9.860;2023-04-25T11:32:49;2.67;;;1.30;;
71288;SDS011;59068;52.502;9.860;2023-04-25T11:35:16;2.30;;;0.83;;
71288;SDS011;59068;52.502;9.860;2023-04-25T11:37:42;4.83;;;1.13;;
71288;SDS011;59068;52.502;9.860;2023-04-25T11:40:08;2.80;;;1.00;;
71288;SDS011;59068;52.502;9.860;2023-04-25T11:42:36;1.67;;;0.97;;
71288;SDS011;59068;52.502;9.860;2023-04-25T11:45:03;2.03;;;0.80;;
71288;SDS011;59068;52.502;9.860;2023-04-25T11:47:29;1.70;;;0.50;;
71288;SDS011;59068;52.502;9.860;2023-04-25T11:49:55;3.63;;;0.87;;
71288;SDS011;59068;52.502;9.860;2023-04-25T11:52:20;2.57;;;0.50;;
71288;SDS011;59068;52.502;9.860;2023-04-25T11:54:46;2.63;;;0.50;;
71288;SDS011;59068;52.502;9.860;2023-04-25T11:57:11;0.90;;;0.40;;
71288;SDS011;59068;52.502;9.860;2023-04-25T11:59:37;1.57;;;0.50;;
71288;SDS011;59068;52.502;9.860;2023-04-25T12:02:02;1.10;;;0.60;;
71288;SDS011;59068;52.502;9.860;2023-04-25T12:04:29;1.47;;;0.77;;
71288;SDS011;59068;52.502;9.860;2023-04-25T12:06:55;3.13;;;0.70;;
71288;SDS011;59068;52.502;9.860;2023-04-25T12:09:27;4.40;;;0.93;;
71288;SDS011;59068;52.502;9.860;2023-04-25T12:11:54;1.80;;;0.60;;
71288;SDS011;59068;52.502;9.860;2023-04-25T12:14:21;1.20;;;0.50;;
71288;SDS011;59068;52.502;9.860;2023-04-25T12:16:49;2.10;;;0.60;;
71288;SDS011;59068;52.502;9.860;2023-04-25T12:19:15;1.73;;;0.53;;
71288;SDS011;59068;52.502;9.860;2023-04-25T12:21:41;2.80;;;0.90;;
71288;SDS011;59068;52.502;9.860;2023-04-25T12:24:26;3.97;;;0.90;;
71288;SDS011;59068;52.502;9.860;2023-04-25T12:27:02;4.17;;;0.90;;
71288;SDS011;59068;52.502;9.860;2023-04-25T12:29:31;2.97;;;0.57;;
71288;SDS011;59068;52.502;9.860;2023-04-25T12:31:58;2.17;;;0.80;;
71288;SDS011;59068;52.502;9.860;2023-04-25T12:34:23;2.37;;;0.60;;
71288;SDS011;59068;52.502;9.860;2023-04-25T12:36:50;2.43;;;0.90;;
71288;SDS011;59068;52.502;9.860;2023-04-25T12:41:45;2.00;;;0.60;;
71288;SDS011;59068;52.502;9.860;2023-04-25T12:44:11;1.17;;;0.60;;
71288;SDS011;59068;52.502;9.860;2023-04-25T12:46:37;3.77;;;0.70;;
71288;SDS011;59068;52.502;9.860;2023-04-25T12:49:03;4.77;;;1.17;;
71288;SDS011;59068;52.502;9.860;2023-04-25T12:51:29;3.73;;;0.60;;
71288;SDS011;59068;52.502;9.860;2023-04-25T12:53:55;2.43;;;0.50;;
71288;SDS011;59068;52.502;9.860;2023-04-25T12:56:20;2.00;;;0.47;;
71288;SDS011;59068;52.502;9.860;2023-04-25T12:58:47;1.03;;;0.53;;
71288;SDS011;59068;52.502;9.860;2023-04-25T13:01:13;3.53;;;0.70;;
71288;SDS011;59068;52.502;9.860;2023-04-25T13:03:39;2.10;;;0.70;;
71288;SDS011;59068;52.502;9.860;2023-04-25T13:06:05;2.13;;;0.70;;
71288;SDS011;59068;52.502;9.860;2023-04-25T13:08:31;2.00;;;0.77;;
71288;SDS011;59068;52.502;9.860;2023-04-25T13:10:57;1.90;;;0.53;;
71288;SDS011;59068;52.502;9.860;2023-04-25T13:13:22;2.97;;;0.40;;
71288;SDS011;59068;52.502;9.860;2023-04-25T13:15:48;0.80;;;0.50;;
71288;SDS011;59068;52.502;9.860;2023-04-25T13:18:13;0.93;;;0.40;;
71288;SDS011;59068;52.502;9.860;2023-04-25T13:20:38;1.33;;;0.67;;
71288;SDS011;59068;52.502;9.860;2023-04-25T13:23:04;1.97;;;0.50;;
71288;SDS011;59068;52.502;9.860;2023-04-25T13:25:29;1.37;;;0.80;;
71288;SDS011;59068;52.502;9.860;2023-04-25T13:27:54;1.67;;;0.60;;
71288;SDS011;59068;52.502;9.860;2023-04-25T13:30:20;1.93;;;0.50;;
71288;SDS011;59068;52.502;9.860;2023-04-25T13:32:45;2.23;;;0.60;;
71288;SDS011;59068;52.502;9.860;2023-04-25T13:35:11;1.53;;;0.60;;
71288;SDS011;59068;52.502;9.860;2023-04-25T13:37:38;3.07;;;0.80;;
71288;SDS011;59068;52.502;9.860;2023-04-25T13:40:07;2.37;;;0.60;;
71288;SDS011;59068;52.502;9.860;2023-04-25T13:42:34;3.00;;;0.63;;
71288;SDS011;59068;52.502;9.860;2023-04-25T13:45:01;1.80;;;0.60;;
71288;SDS011;59068;52.502;9.860;2023-04-25T13:47:27;2.80;;;0.90;;
71288;SDS011;59068;52.502;9.860;2023-04-25T13:49:52;3.07;;;0.83;;
71288;SDS011;59068;52.502;9.860;2023-04-25T13:52:18;3.43;;;0.80;;
71288;SDS011;59068;52.502;9.860;2023-04-25T13:54:43;1.93;;;0.80;;
71288;SDS011;59068;52.502;9.860;2023-04-25T13:57:08;1.13;;;0.73;;
71288;SDS011;59068;52.502;9.860;2023-04-25T13:59:35;3.33;;;0.97;;
71288;SDS011;59068;52.502;9.860;2023-04-25T14:02:01;3.30;;;0.70;;
71288;SDS011;59068;52.502;9.860;2023-04-25T14:04:27;4.30;;;0.70;;
71288;SDS011;59068;52.502;9.860;2023-04-25T14:06:52;0.40;;;0.40;;
71288;SDS011;59068;52.502;9.860;2023-04-25T14:09:18;3.07;;;0.67;;
71288;SDS011;59068;52.502;9.860;2023-04-25T14:11:45;1.03;;;0.40;;
71288;SDS011;59068;52.502;9.860;2023-04-25T14:14:10;2.50;;;0.57;;
71288;SDS011;59068;52.502;9.860;2023-04-25T14:16:37;1.97;;;0.63;;
71288;SDS011;59068;52.502;9.860;2023-04-25T14:19:02;1.27;;;0.60;;
71288;SDS011;59068;52.502;9.860;2023-04-25T14:21:28;0.67;;;0.50;;
71288;SDS011;59068;52.502;9.860;2023-04-25T14:23:54;1.47;;;0.70;;
71288;SDS011;59068;52.502;9.860;2023-04-25T14:26:19;1.33;;;0.50;;
71288;SDS011;59068;52.502;9.860;2023-04-25T14:28:45;1.13;;;0.40;;
71288;SDS011;59068;52.502;9.860;2023-04-25T14:31:10;0.50;;;0.50;;
71288;SDS011;59068;52.502;9.860;2023-04-25T14:33:35;1.80;;;0.60;;
71288;SDS011;59068;52.502;9.860;2023-04-25T14:36:04;1.67;;;0.63;;
71288;SDS011;59068;52.502;9.860;2023-04-25T14:38:30;0.70;;;0.40;;
71288;SDS011;59068;52.502;9.860;2023-04-25T14:40:55;1.43;;;0.50;;
71288;SDS011;59068;52.502;9.860;2023-04-25T14:43:20;2.47;;;1.03;;
71288;SDS011;59068;52.502;9.860;2023-04-25T14:45:46;2.80;;;0.80;;